Mendon - 24 Hour Table
Date & TimeSolar
Radiation
(W/m²)
Wind
Speed
(mph)
Wind
Direction
(degrees)
Air
Temperature
(°F)
Relative
Humidity
(%)
Precipitation
(inches)
2021/12/01 13:00 419 0.4 163 47.6 48 0.00
2021/12/01 12:00 421 0.3 144 44.2 55 0.00
2021/12/01 11:00 337 0.0 137 39.6 68 0.00
2021/12/01 10:00 221 0.0 41 33.9 76 0.00
2021/12/01 09:00 68 0.0 204 28.6 88 0.00
2021/12/01 08:00 6 0.0 310 26.8 94 0.00
2021/12/01 07:00 1 0.0 305 27.1 93 0.00
2021/12/01 06:00 1 0.0 291 27.6 93 0.00
2021/12/01 05:00 1 0.0 298 28.7 92 0.00
2021/12/01 04:00 1 0.0 269 28.7 91 0.00
2021/12/01 03:00 1 0.0 294 28.4 91 0.00
2021/12/01 02:00 1 0.0 197 30.4 88 0.00
2021/12/01 01:00 1 0.0 211 30.5 90 0.00
2021/12/01 00:00 1 0.0 287 31.7 85 0.00
2021/11/30 23:00 1 0.0 277 29.9 87 0.00
2021/11/30 22:00 1 0.0 195 30.0 87 0.00
2021/11/30 21:00 1 0.0 263 30.9 85 0.00
2021/11/30 20:00 1 0.0 271 31.3 85 0.00
2021/11/30 19:00 1 0.0 259 32.2 85 0.00
2021/11/30 18:00 2 0.0 272 34.7 83 0.00
2021/11/30 17:00 19 0.0 259 40.0 76 0.00
2021/11/30 16:00 57 0.1 170 44.5 62 0.00
2021/11/30 15:00 106 0.0 21 45.2 58 0.00
2021/11/30 14:00 181 0.7 159 42.4 59 0.00